Stations météo

Publicité
Cassley, Grande-Bretagne (99003): Température de l'air & dewpoint: 14.09.2019 04:00:00 - 20.09.2019 04:00:00 (BST)Cassley, Grande-Bretagne (99003): Quantités de précipitations: 14.09.2019 04:00:00 - 20.09.2019 04:00:00 (BST)
Date & Time tt [°C] td [°C] rr [mm]
20.09.2019 04:00:00 5,1 5,1 0,0
20.09.2019 03:00:00 5,6 5,6 0,0
20.09.2019 02:00:00 5,5 5,3 0,0
20.09.2019 01:00:00 7,3 7,3 0,0
20.09.2019 00:00:00 7,0 6,6 0,0
19.09.2019 23:00:00 7,2 6,7 0,0
19.09.2019 22:00:00 7,5 6,6 0,0
19.09.2019 21:00:00 9,0 7,2 0,0
19.09.2019 20:00:00 10,6 7,9 0,0
19.09.2019 19:00:00 13,4 9,0 0,0
19.09.2019 18:00:00 13,8 9,8 0,0
19.09.2019 17:00:00 14,5 10,5 0,0
19.09.2019 16:00:00 14,7 10,4 0,0
19.09.2019 15:00:00 15,2 11,2 0,0
19.09.2019 14:00:00 15,3 11,8 0,0
19.09.2019 13:00:00 14,9 12,0 0,0
19.09.2019 12:00:00 14,4 12,0 0,0
19.09.2019 11:00:00 13,4 11,4 0,0
19.09.2019 10:00:00 12,9 11,3 0,0
19.09.2019 09:00:00 12,7 11,1 0,0
19.09.2019 08:00:00 12,2 11,0 0,0
19.09.2019 07:00:00 12,2 11,0 0,0
19.09.2019 06:00:00 12,1 11,1 0,0
19.09.2019 05:00:00 12,4 11,1 0,0
19.09.2019 04:00:00 12,2 11,3 0,0
19.09.2019 03:00:00 12,5 11,7 0,0
19.09.2019 02:00:00 12,7 12,3 0,2
19.09.2019 01:00:00 12,8 12,5 0,0
19.09.2019 00:00:00 11,2 11,2 0,2
18.09.2019 23:00:00 11,0 10,9 0,0
18.09.2019 22:00:00 10,7 10,7 0,4
18.09.2019 21:00:00 10,9 10,8 0,2
18.09.2019 20:00:00 11,4 11,3 0,0
18.09.2019 19:00:00 12,2 12,1 0,2
18.09.2019 18:00:00 12,3 12,1 0,2
18.09.2019 17:00:00 12,0 11,7 0,2
18.09.2019 16:00:00 12,0 11,6 0,2
18.09.2019 15:00:00 11,5 11,1 0,0
18.09.2019 14:00:00 10,9 10,6 0,4
18.09.2019 13:00:00 10,4 10,2 1,0
18.09.2019 12:00:00 9,6 9,2 0,8
18.09.2019 11:00:00 9,2 9,0 1,2
18.09.2019 10:00:00 8,5 8,4 1,8
18.09.2019 09:00:00 7,8 7,7 2,6
18.09.2019 08:00:00 7,4 7,3 2,8
18.09.2019 07:00:00 7,2 7,1 2,4
18.09.2019 06:00:00 7,1 6,8 1,8
18.09.2019 05:00:00 6,9 6,8 1,8
18.09.2019 04:00:00 6,8 6,4 0,6
18.09.2019 03:00:00 7,4 5,9 0,4
18.09.2019 02:00:00 7,6 6,1 0,2
18.09.2019 01:00:00 8,0 6,0 0,0
18.09.2019 00:00:00 8,1 5,9 0,0
17.09.2019 23:00:00 8,4 5,9 0,0
17.09.2019 22:00:00 8,7 5,7 0,0
17.09.2019 21:00:00 8,9 5,7 0,0
17.09.2019 20:00:00 9,1 6,1 0,0
17.09.2019 19:00:00 9,9 5,7 0,0
17.09.2019 18:00:00 10,6 5,6 0,0
17.09.2019 17:00:00 11,1 5,9 0,0
17.09.2019 16:00:00 11,5 5,9 0,0
17.09.2019 15:00:00 11,3 6,2 0,0
17.09.2019 14:00:00 11,5 5,5 0,0
17.09.2019 13:00:00 12,4 4,7 0,0
17.09.2019 12:00:00 12,2 5,3 0,0
17.09.2019 11:00:00 10,0 6,4 0,0
17.09.2019 10:00:00 10,2 5,8 0,0
17.09.2019 09:00:00 9,0 5,6 0,0
17.09.2019 08:00:00 7,3 3,9 0,0
17.09.2019 07:00:00 7,5 4,0 0,0
17.09.2019 06:00:00 7,7 5,7 0,0
17.09.2019 05:00:00 8,0 4,3 0,0
17.09.2019 04:00:00 7,9 5,1 0,8
17.09.2019 03:00:00 7,7 5,0 0,2
17.09.2019 02:00:00 9,0 3,1 0,0
17.09.2019 01:00:00 8,9 2,5 0,0
17.09.2019 00:00:00 8,5 2,5 0,0
16.09.2019 23:00:00 8,5 2,8 0,0
16.09.2019 22:00:00 8,7 3,4 0,0
16.09.2019 21:00:00 9,1 5,7 0,0
16.09.2019 20:00:00 8,5 6,1 0,4
16.09.2019 19:00:00 9,1 6,0 0,0
16.09.2019 18:00:00 10,8 4,8 0,0
16.09.2019 17:00:00 11,4 6,5 0,0
16.09.2019 16:00:00 10,6 7,6 0,0
16.09.2019 15:00:00 10,6 7,1 0,4
16.09.2019 14:00:00 10,9 7,8 0,4
16.09.2019 13:00:00 11,2 8,4 0,4
16.09.2019 12:00:00 12,0 7,0 0,0
16.09.2019 11:00:00 12,2 6,6 0,0
16.09.2019 10:00:00 10,6 7,7 0,0
16.09.2019 09:00:00 8,8 7,3 0,4
16.09.2019 08:00:00 9,5 7,2 0,0
16.09.2019 07:00:00 9,3 7,1 0,2
16.09.2019 06:00:00 9,7 6,6 0,0
16.09.2019 05:00:00 9,6 7,0 0,0
16.09.2019 04:00:00 8,8 7,0 0,2
16.09.2019 03:00:00 8,9 5,7 0,0
16.09.2019 02:00:00 9,4 6,7 0,0
16.09.2019 01:00:00 9,7 5,5 0,0
16.09.2019 00:00:00 8,3 5,5 0,0
15.09.2019 23:00:00 9,6 5,9 0,0
15.09.2019 22:00:00 8,7 5,6 0,0
15.09.2019 21:00:00 8,8 5,8 0,0
15.09.2019 20:00:00 9,5 6,3 0,0
15.09.2019 19:00:00 10,8 4,9 0,0
15.09.2019 18:00:00 11,1 4,3 0,0
15.09.2019 17:00:00 12,0 5,1 0,0
15.09.2019 16:00:00 12,7 5,0 0,0
15.09.2019 15:00:00 12,0 5,0 0,0
15.09.2019 14:00:00 10,9 6,1 0,0
15.09.2019 13:00:00 11,3 4,4 0,0
15.09.2019 12:00:00 11,2 4,6 0,0
15.09.2019 11:00:00 11,5 5,6 0,0
15.09.2019 10:00:00 10,5 4,7 0,0
15.09.2019 09:00:00 10,5 5,8 0,0
15.09.2019 08:00:00 10,3 5,6 0,0
15.09.2019 07:00:00 10,2 5,2 0,0
15.09.2019 06:00:00 9,8 4,0 0,0
15.09.2019 05:00:00 9,8 4,9 0,2
15.09.2019 04:00:00 10,0 4,3 0,0
15.09.2019 03:00:00 10,0 4,6 0,0
15.09.2019 02:00:00 9,9 5,4 0,2
15.09.2019 01:00:00 10,4 6,2 0,0
15.09.2019 00:00:00 10,5 6,0 0,4
14.09.2019 23:00:00 10,3 8,7 1,8
14.09.2019 22:00:00 12,3 7,0 0,0
14.09.2019 21:00:00 12,1 7,7 0,0
14.09.2019 20:00:00 12,3 8,8 0,2
14.09.2019 19:00:00 12,2 10,3 2,0
14.09.2019 18:00:00 13,3 12,8 7,6
14.09.2019 17:00:00 14,3 12,8 5,6
14.09.2019 16:00:00 15,7 13,0 5,0
14.09.2019 15:00:00 15,6 13,1 3,6
14.09.2019 14:00:00 16,2 12,8 0,6
14.09.2019 13:00:00 16,0 12,9 0,2
14.09.2019 12:00:00 16,5 13,2 1,2
14.09.2019 11:00:00 16,0 13,0 0,6
14.09.2019 10:00:00 15,1 11,7 0,0
14.09.2019 09:00:00 11,3 9,4 1,2
14.09.2019 08:00:00 11,0 8,7 1,2
14.09.2019 07:00:00 11,4 8,0 0,0
14.09.2019 06:00:00 11,3 7,5 0,0
14.09.2019 05:00:00 10,5 7,8 0,0
14.09.2019 04:00:00 10,1 7,5 0,0

tt = Température de l'air
td = dewpoint
rr = Quantités de précipitations

stations d'obs. à proximité